Time;durP1;ratioP1;P1;durP2;ratioP2;P2;SDS_P1;SDS_P2;PMS_P1;PMS_P2;Temp;Humidity;BMP_temperature;BMP_pressure;BME280_temperature;BME280_humidity;BME280_pressure;Samples;Min_cycle;Max_cycle;Signal;HPM_P1;HPM_P2
2023/12/06 00:00:36;;;;;;;27.10;24.10;;;;;;;1.49;100.00;101053.25;5110861;28;20028;-36
2023/12/06 00:03:02;;;;;;;28.23;22.85;;;;;;;1.47;100.00;101048.09;5110189;28;20102;-36
2023/12/06 00:05:27;;;;;;;29.15;24.38;;;;;;;1.51;100.00;101048.56;5110720;28;20055;-36
2023/12/06 00:07:53;;;;;;;28.33;24.50;;;;;;;1.52;100.00;101052.94;5102586;28;20082;-37
2023/12/06 00:10:18;;;;;;;30.03;24.63;;;;;;;1.55;100.00;101052.56;5096514;28;20028;-34
2023/12/06 00:12:43;;;;;;;29.47;25.07;;;;;;;1.54;100.00;101054.41;5096178;28;20069;-34
2023/12/06 00:15:09;;;;;;;31.53;25.57;;;;;;;1.47;100.00;101055.25;5096116;28;20111;-34
2023/12/06 00:17:34;;;;;;;30.17;24.92;;;;;;;1.54;100.00;101057.06;5096922;28;20035;-34
2023/12/06 00:20:00;;;;;;;27.97;24.87;;;;;;;1.47;100.00;101048.09;5095969;28;20139;-34
2023/12/06 00:22:25;;;;;;;31.30;26.40;;;;;;;1.54;100.00;101069.56;5095993;28;20031;-34
2023/12/06 00:24:53;;;;;;;29.93;25.37;;;;;;;1.54;100.00;101072.22;5096194;28;20062;-34
2023/12/06 00:27:19;;;;;;;29.85;24.67;;;;;;;1.55;100.00;101068.56;5096453;28;20027;-35
2023/12/06 00:29:45;;;;;;;;;;;;;;;1.61;100.00;101059.91;5096108;28;20532;-35
2023/12/06 00:32:10;;;;;;;30.00;24.60;;;;;;;1.57;100.00;101071.09;5096413;28;19958;-35
2023/12/06 00:34:35;;;;;;;30.93;25.20;;;;;;;1.39;100.00;101039.25;5095990;28;20065;-35
2023/12/06 00:37:01;;;;;;;30.77;26.40;;;;;;;1.48;100.00;101059.59;5095926;28;20274;-35
2023/12/06 00:39:26;;;;;;;29.30;24.63;;;;;;;1.58;100.00;101086.91;5095829;28;20039;-35
2023/12/06 00:41:51;;;;;;;30.15;25.00;;;;;;;1.58;100.00;101083.41;5096132;28;20025;-35
2023/12/06 00:44:17;;;;;;;27.53;23.27;;;;;;;1.60;100.00;101086.72;5095788;28;20024;-35
2023/12/06 00:46:42;;;;;;;32.37;25.60;;;;;;;1.60;100.00;101087.56;5096084;28;20032;-35
2023/12/06 00:49:07;;;;;;;27.73;24.00;;;;;;;1.55;100.00;101089.88;5095699;28;20105;-35
2023/12/06 00:51:33;;;;;;;29.33;24.20;;;;;;;1.53;100.00;101086.56;5096016;28;20495;-36
2023/12/06 00:53:58;;;;;;;32.20;25.17;;;;;;;1.60;100.00;101098.22;5095435;28;20032;-36
2023/12/06 00:56:23;;;;;;;29.47;24.40;;;;;;;1.54;100.00;101093.56;5096053;28;20075;-36
2023/12/06 00:58:49;;;;;;;29.13;24.30;;;;;;;1.62;100.00;101095.41;5095843;28;20028;-36
2023/12/06 01:01:14;;;;;;;31.03;24.53;;;;;;;1.57;100.00;101089.75;5095792;28;20028;-36
2023/12/06 01:03:40;;;;;;;30.77;25.03;;;;;;;1.55;100.00;101095.22;5095776;28;20084;-36
2023/12/06 01:06:06;;;;;;;;;;;;;;;1.70;100.00;101106.06;5096700;28;20062;-36
2023/12/06 01:08:31;;;;;;;28.52;22.85;;;;;;;1.63;100.00;101107.72;5095037;28;19908;-36
2023/12/06 01:10:56;;;;;;;31.40;24.47;;;;;;;1.65;100.00;101117.22;5095363;28;20024;-36
2023/12/06 01:13:22;;;;;;;27.37;23.40;;;;;;;1.66;100.00;101120.72;5095303;28;20046;-36
2023/12/06 01:15:47;;;;;;;28.57;23.50;;;;;;;1.64;100.00;101118.22;5095464;28;20093;-36
2023/12/06 01:18:13;;;;;;;29.60;24.37;;;;;;;1.62;100.00;101112.22;5095389;28;20346;-36
2023/12/06 01:20:39;;;;;;;26.38;22.55;;;;;;;1.64;100.00;101123.53;5094770;28;20574;-36
2023/12/06 01:23:05;;;;;;;27.00;22.83;;;;;;;1.57;100.00;101114.56;5094759;28;20031;-36
2023/12/06 01:25:30;;;;;;;29.33;23.45;;;;;;;1.64;100.00;101128.06;5095868;28;20052;-36
2023/12/06 01:27:56;;;;;;;26.95;23.20;;;;;;;1.51;100.00;101107.19;5094702;28;20450;-36
2023/12/06 01:30:21;;;;;;;25.67;21.67;;;;;;;1.63;100.00;101140.56;5095207;28;20414;-36
2023/12/06 01:32:47;;;;;;;28.73;23.03;;;;;;;1.62;100.00;101138.88;5094931;28;20028;-36
2023/12/06 01:35:12;;;;;;;28.25;22.75;;;;;;;1.62;100.00;101141.56;5094774;28;20618;-36
2023/12/06 01:37:38;;;;;;;26.27;22.43;;;;;;;1.64;100.00;101142.22;5095649;28;20036;-36
2023/12/06 01:40:04;;;;;;;23.52;21.02;;;;;;;1.55;100.00;101140.53;5094498;28;20069;-36
2023/12/06 01:42:30;;;;;;;26.63;22.60;;;;;;;1.62;100.00;101151.38;5095285;28;20032;-36
2023/12/06 01:44:55;;;;;;;24.85;21.60;;;;;;;1.64;100.00;101152.88;5094973;28;20456;-36
2023/12/06 01:47:22;;;;;;;23.97;20.90;;;;;;;1.65;100.00;101154.53;5094651;28;20064;-36
2023/12/06 01:49:49;;;;;;;26.60;21.70;;;;;;;1.64;100.00;101152.88;5094210;28;20448;-37
2023/12/06 01:52:15;;;;;;;23.85;21.13;;;;;;;1.61;100.00;101153.22;5095068;28;20032;-36
2023/12/06 01:54:40;;;;;;;25.73;21.83;;;;;;;1.65;100.00;101159.88;5094526;28;20050;-36
2023/12/06 01:57:06;;;;;;;25.17;21.85;;;;;;;1.64;100.00;101155.53;5095525;28;20094;-36
2023/12/06 01:59:32;;;;;;;25.48;21.08;;;;;;;1.58;100.00;101147.38;5094142;28;20035;-35
2023/12/06 02:01:58;;;;;;;24.42;20.40;;;;;;;1.60;100.00;101154.19;5094610;28;20032;-35
2023/12/06 02:04:25;;;;;;;24.02;20.50;;;;;;;1.62;100.00;101168.22;5094036;28;20476;-35
2023/12/06 02:06:51;;;;;;;25.25;21.20;;;;;;;1.61;100.00;101171.03;5094253;28;20111;-35
2023/12/06 02:09:17;;;;;;;23.98;20.23;;;;;;;1.57;100.00;101153.72;5093956;28;20028;-35
2023/12/06 02:11:43;;;;;;;23.50;19.63;;;;;;;1.63;100.00;101175.22;5094544;28;20028;-35
2023/12/06 02:14:08;;;;;;;22.05;19.33;;;;;;;1.63;100.00;101177.03;5094138;28;20081;-36
2023/12/06 02:16:34;;;;;;;20.52;17.70;;;;;;;1.65;100.00;101167.03;5094098;28;20036;-36
2023/12/06 02:18:59;;;;;;;21.93;18.40;;;;;;;1.63;100.00;101182.38;5094244;28;20020;-36
2023/12/06 02:21:25;;;;;;;20.80;18.58;;;;;;;1.63;100.00;101174.38;5093816;28;20320;-36
2023/12/06 02:23:55;;;;;;;21.05;18.85;;;;;;;1.64;100.00;101184.03;5093693;28;20057;-36
2023/12/06 02:26:20;;;;;;;20.27;18.08;;;;;;;1.63;100.00;101177.88;5093941;28;20036;-36
2023/12/06 02:28:45;;;;;;;20.73;18.00;;;;;;;1.65;100.00;101175.03;5093956;28;20073;-36
2023/12/06 02:31:11;;;;;;;21.00;17.23;;;;;;;1.58;100.00;101172.19;5093988;28;20043;-36
2023/12/06 02:33:38;;;;;;;20.70;18.30;;;;;;;1.67;100.00;101184.56;5093867;28;20475;-36
2023/12/06 02:36:04;;;;;;;20.50;17.60;;;;;;;1.67;100.00;101187.22;5093960;28;20427;-36
2023/12/06 02:38:32;;;;;;;19.05;17.05;;;;;;;1.66;100.00;101193.56;5093660;28;20085;-36
2023/12/06 02:40:59;;;;;;;19.30;17.25;;;;;;;1.59;100.00;101175.69;5094508;28;20138;-36
2023/12/06 02:43:25;;;;;;;22.75;17.52;;;;;;;1.59;100.00;101173.88;5093878;28;20062;-36
2023/12/06 02:45:50;;;;;;;19.65;17.40;;;;;;;1.67;100.00;101170.38;5093662;28;20101;-36
2023/12/06 02:48:16;;;;;;;18.13;16.20;;;;;;;1.67;100.00;101170.38;5093843;28;20035;-36
2023/12/06 02:50:41;;;;;;;18.13;16.23;;;;;;;1.70;100.00;101181.53;5093409;28;20107;-36
2023/12/06 02:53:07;;;;;;;18.37;16.27;;;;;;;1.72;100.00;101186.72;5094171;28;20055;-36
2023/12/06 02:55:32;;;;;;;17.73;15.93;;;;;;;1.73;100.00;101188.38;5093433;28;20090;-36
2023/12/06 02:57:57;;;;;;;18.87;15.40;;;;;;;1.73;100.00;101188.38;5093296;28;20066;-36
2023/12/06 03:00:23;;;;;;;17.97;16.07;;;;;;;1.71;100.00;101177.06;5093892;28;20024;-36
2023/12/06 03:02:48;;;;;;;17.67;15.80;;;;;;;1.75;100.00;101175.72;5093300;28;20078;-36
2023/12/06 03:05:13;;;;;;;18.17;16.27;;;;;;;1.73;100.00;101189.22;5094055;28;20527;-36
2023/12/06 03:07:39;;;;;;;17.40;15.60;;;;;;;1.74;100.00;101190.03;5093274;28;20043;-36
2023/12/06 03:10:04;;;;;;;17.40;15.70;;;;;;;1.77;100.00;101174.56;5093710;28;20020;-36
2023/12/06 03:12:30;;;;;;;16.08;14.48;;;;;;;1.78;100.00;101183.38;5093512;28;20508;-36
2023/12/06 03:14:55;;;;;;;17.03;15.23;;;;;;;1.75;100.00;101179.19;5093515;28;20032;-36
2023/12/06 03:17:20;;;;;;;16.87;15.10;;;;;;;1.78;100.00;101178.06;5093476;28;20024;-36
2023/12/06 03:19:46;;;;;;;15.87;14.27;;;;;;;1.80;100.00;101189.38;5093728;28;20028;-36
2023/12/06 03:22:11;;;;;;;16.17;14.03;;;;;;;1.80;100.00;101192.88;5093433;28;20028;-36
2023/12/06 03:24:36;;;;;;;16.70;14.83;;;;;;;1.80;100.00;101197.38;5093287;28;20108;-36
2023/12/06 03:27:02;;;;;;;17.53;15.63;;;;;;;1.82;100.00;101184.72;5093355;28;20032;-36
2023/12/06 03:29:28;;;;;;;16.65;14.77;;;;;;;1.76;100.00;101194.22;5092922;28;20384;-36
2023/12/06 03:31:53;;;;;;;16.17;14.57;;;;;;;1.82;100.00;101200.72;5093304;28;20028;-36
2023/12/06 03:34:18;;;;;;;15.33;13.83;;;;;;;1.83;100.00;101207.72;5093208;28;20066;-36
2023/12/06 03:36:44;;;;;;;14.90;13.37;;;;;;;1.83;100.00;101201.56;5093438;28;20642;-36
2023/12/06 03:39:09;;;;;;;15.67;14.07;;;;;;;1.88;100.00;101209.91;5092944;28;20054;-36
2023/12/06 03:41:34;;;;;;;15.83;14.13;;;;;;;1.88;100.00;101212.56;5092905;28;20021;-36
2023/12/06 03:44:00;;;;;;;14.37;12.97;;;;;;;1.90;100.00;101213.22;5096632;28;20028;-36
2023/12/06 03:46:26;;;;;;;15.35;13.85;;;;;;;1.93;100.00;101213.72;5097037;28;20028;-36
2023/12/06 03:48:51;;;;;;;15.33;13.73;;;;;;;1.86;100.00;101209.25;5097192;28;20031;-36
2023/12/06 03:51:16;;;;;;;16.47;14.67;;;;;;;1.96;100.00;101217.91;5096887;28;20123;-36
2023/12/06 03:53:43;;;;;;;15.83;14.23;;;;;;;1.91;100.00;101210.41;5096906;28;20051;-36
2023/12/06 03:56:08;;;;;;;15.10;13.55;;;;;;;1.95;100.00;101221.56;5097274;28;20044;-36
2023/12/06 03:58:35;;;;;;;14.88;13.38;;;;;;;1.84;100.00;101205.88;5097530;28;20020;-36
2023/12/06 04:01:01;;;;;;;14.80;13.30;;;;;;;2.00;100.00;101230.75;5095722;28;20376;-36
2023/12/06 04:03:26;;;;;;;15.63;14.07;;;;;;;1.98;100.00;101223.91;5095915;28;20028;-36
2023/12/06 04:05:52;;;;;;;16.13;14.07;;;;;;;1.83;100.00;101197.06;5097257;28;20281;-36
2023/12/06 04:08:17;;;;;;;15.55;13.93;;;;;;;1.95;100.00;101210.88;5097180;28;20024;-36
2023/12/06 04:10:42;;;;;;;14.20;12.77;;;;;;;2.06;100.00;101234.59;5096812;28;20066;-36
2023/12/06 04:13:08;;;;;;;14.33;12.93;;;;;;;2.05;100.00;101238.28;5096438;28;20380;-36
2023/12/06 04:15:33;;;;;;;14.53;13.03;;;;;;;2.06;100.00;101238.09;5096948;28;20111;-36
2023/12/06 04:17:58;;;;;;;15.90;13.63;;;;;;;2.09;100.00;101238.75;5096472;28;20464;-36
2023/12/06 04:20:24;;;;;;;15.23;13.70;;;;;;;2.06;100.00;101227.41;5096992;28;20077;-36
2023/12/06 04:22:49;;;;;;;13.77;12.37;;;;;;;2.14;100.00;101237.25;5096396;28;20036;-35
2023/12/06 04:25:15;;;;;;;14.63;13.13;;;;;;;2.13;100.00;101240.91;5096212;28;20028;-35
2023/12/06 04:27:41;;;;;;;14.75;13.27;;;;;;;2.09;100.00;101231.56;5096713;28;20051;-35
2023/12/06 04:30:06;;;;;;;14.73;13.20;;;;;;;2.14;100.00;101247.09;5096437;28;20031;-35
2023/12/06 04:32:32;;;;;;;15.35;13.75;;;;;;;2.07;100.00;101230.91;5096020;28;20486;-35
2023/12/06 04:34:57;;;;;;;14.43;12.93;;;;;;;2.15;100.00;101246.06;5096208;28;20038;-35
2023/12/06 04:37:23;;;;;;;15.27;13.73;;;;;;;2.13;100.00;101253.44;5096223;28;20521;-35
2023/12/06 04:39:48;;;;;;;15.25;13.52;;;;;;;2.16;100.00;101247.78;5096221;28;20028;-35
2023/12/06 04:42:15;;;;;;;15.40;13.80;;;;;;;2.16;100.00;101245.94;5095716;28;20369;-35
2023/12/06 04:44:40;;;;;;;14.90;13.40;;;;;;;2.17;100.00;101247.59;5096169;28;20046;-35
2023/12/06 04:47:06;;;;;;;14.97;13.47;;;;;;;2.14;100.00;101253.25;5096624;28;20035;-35
2023/12/06 04:49:31;;;;;;;14.15;12.68;;;;;;;2.19;100.00;101266.09;5095768;28;20039;-36
2023/12/06 04:51:57;;;;;;;14.45;12.95;;;;;;;2.19;100.00;101253.59;5096022;28;20032;-36
2023/12/06 04:54:25;;;;;;;14.38;12.88;;;;;;;2.20;100.00;101259.78;5095514;28;20035;-36
2023/12/06 04:56:51;;;;;;;14.93;13.40;;;;;;;2.20;100.00;101263.28;5096581;28;20044;-36
2023/12/06 04:59:17;;;;;;;15.02;13.57;;;;;;;2.21;100.00;101256.94;5095835;28;20081;-36
2023/12/06 05:01:43;;;;;;;14.93;13.52;;;;;;;2.23;100.00;101262.94;5095865;28;20464;-36
2023/12/06 05:04:08;;;;;;;;;;;;;;;2.28;100.00;101265.94;5095902;28;20089;-36
2023/12/06 05:06:33;;;;;;;14.13;12.68;;;;;;;2.26;100.00;101267.13;5095446;28;19912;-36
2023/12/06 05:08:59;;;;;;;15.10;13.60;;;;;;;2.28;100.00;101270.44;5095059;28;20063;-36
2023/12/06 05:11:24;;;;;;;13.63;12.23;;;;;;;2.28;100.00;101265.94;5095103;28;20056;-36
2023/12/06 05:13:49;;;;;;;14.23;12.83;;;;;;;2.25;100.00;101265.47;5095060;28;20057;-38
2023/12/06 05:16:15;;;;;;;14.33;12.80;;;;;;;2.29;100.00;101270.31;5095570;28;20028;-39
2023/12/06 05:18:40;;;;;;;15.47;13.87;;;;;;;2.30;100.00;101281.81;5094790;28;20073;-36
2023/12/06 05:21:05;;;;;;;14.23;12.83;;;;;;;2.16;100.00;101256.59;5095726;28;20259;-36
2023/12/06 05:23:31;;;;;;;14.60;13.07;;;;;;;2.35;100.00;101281.31;5095370;28;20035;-34
2023/12/06 05:25:56;;;;;;;15.87;13.70;;;;;;;2.36;100.00;101286.47;5095110;28;20056;-35
2023/12/06 05:28:21;;;;;;;15.13;13.17;;;;;;;2.38;100.00;101287.13;5094988;28;20059;-35
2023/12/06 05:30:47;;;;;;;15.20;13.63;;;;;;;2.37;100.00;101285.47;5095295;28;20529;-36
2023/12/06 05:33:12;;;;;;;16.60;13.63;;;;;;;2.40;100.00;101289.66;5094911;28;20376;-35
2023/12/06 05:35:37;;;;;;;15.37;13.60;;;;;;;2.42;100.00;101290.31;5095102;28;20032;-35
2023/12/06 05:38:03;;;;;;;14.97;13.40;;;;;;;2.41;100.00;101288.63;5094214;28;20081;-36
2023/12/06 05:40:29;;;;;;;15.90;14.32;;;;;;;2.41;100.00;101286.81;5094468;28;20077;-35
2023/12/06 05:42:54;;;;;;;15.52;14.00;;;;;;;2.43;100.00;101286.63;5094349;28;20120;-35
2023/12/06 05:45:19;;;;;;;16.13;14.53;;;;;;;2.33;100.00;101274.28;5094215;28;20055;-35
2023/12/06 05:47:45;;;;;;;15.30;13.80;;;;;;;2.45;100.00;101304.16;5095110;28;20056;-35
2023/12/06 05:50:11;;;;;;;15.63;14.00;;;;;;;2.45;100.00;101300.66;5094840;28;20028;-37
2023/12/06 05:52:37;;;;;;;14.93;13.35;;;;;;;2.45;100.00;101306.81;5094830;28;20028;-36
2023/12/06 05:55:03;;;;;;;15.73;14.13;;;;;;;2.46;100.00;101297.81;5094276;28;20028;-36
2023/12/06 05:57:28;;;;;;;16.13;14.43;;;;;;;2.48;100.00;101294.97;5094421;28;20112;-36
2023/12/06 05:59:54;;;;;;;15.95;14.13;;;;;;;2.42;100.00;101287.63;5094334;28;20460;-36
2023/12/06 06:02:20;;;;;;;17.52;15.30;;;;;;;2.51;100.00;101302.66;5094050;28;20076;-36
2023/12/06 06:04:45;;;;;;;16.80;13.60;;;;;;;2.52;100.00;101305.16;5094240;28;20111;-36
2023/12/06 06:07:10;;;;;;;15.70;14.00;;;;;;;2.46;100.00;101294.31;5093525;28;20066;-36
2023/12/06 06:09:36;;;;;;;14.77;13.27;;;;;;;2.45;100.00;101290.81;5093909;28;20020;-36
2023/12/06 06:12:02;;;;;;;15.80;14.20;;;;;;;2.45;100.00;101289.97;5093925;28;20031;-36
2023/12/06 06:14:28;;;;;;;17.25;14.55;;;;;;;2.45;100.00;101282.81;5093806;28;20020;-36
2023/12/06 06:16:53;;;;;;;15.50;13.90;;;;;;;2.51;100.00;101306.16;5094067;28;20115;-37
2023/12/06 06:19:18;;;;;;;15.73;14.13;;;;;;;2.49;100.00;101296.63;5093789;28;20062;-37
2023/12/06 06:21:44;;;;;;;16.33;14.63;;;;;;;2.56;100.00;101316.34;5094270;28;20024;-36
2023/12/06 06:24:09;;;;;;;15.93;14.00;;;;;;;2.56;100.00;101314.50;5093977;28;20373;-36
2023/12/06 06:26:35;;;;;;;15.90;14.20;;;;;;;2.57;100.00;101321.50;5092437;28;20438;-37
2023/12/06 06:29:00;;;;;;;16.48;14.02;;;;;;;2.53;100.00;101319.31;5093291;28;20099;-36
2023/12/06 06:31:26;;;;;;;15.80;14.10;;;;;;;2.49;100.00;101323.31;5093850;28;20024;-35
2023/12/06 06:33:52;;;;;;;15.27;13.77;;;;;;;2.59;100.00;101334.69;5094094;28;20294;-34
2023/12/06 06:36:17;;;;;;;14.60;13.10;;;;;;;2.56;100.00;101333.19;5093758;28;20524;-36
2023/12/06 06:38:43;;;;;;;16.20;13.73;;;;;;;2.61;100.00;101338.03;5093189;28;20400;-36
2023/12/06 06:41:08;;;;;;;17.10;13.52;;;;;;;2.62;100.00;101341.53;5093636;28;20051;-35
2023/12/06 06:43:34;;;;;;;16.17;13.32;;;;;;;2.61;100.00;101346.03;5093374;28;20035;-35
2023/12/06 06:46:00;;;;;;;14.03;12.60;;;;;;;2.63;100.00;101338.69;5094291;28;20028;-35
2023/12/06 06:48:26;;;;;;;15.10;12.95;;;;;;;2.55;100.00;101338.69;5093097;28;20270;-36
2023/12/06 06:50:52;;;;;;;13.97;12.53;;;;;;;2.66;100.00;101351.72;5093776;28;20065;-36
2023/12/06 06:53:17;;;;;;;;;;;;;;;2.69;100.00;101356.72;5093756;28;20066;-36
2023/12/06 06:55:43;;;;;;;13.52;11.45;;;;;;;2.58;100.00;101339.19;5093928;28;19923;-36
2023/12/06 06:58:08;;;;;;;15.35;12.13;;;;;;;2.61;100.00;101342.53;5093852;28;20028;-36
2023/12/06 07:00:33;;;;;;;17.73;12.77;;;;;;;2.58;100.00;101335.69;5093993;28;20028;-36
2023/12/06 07:02:59;;;;;;;13.03;11.70;;;;;;;2.68;100.00;101355.03;5093533;28;20028;-36
2023/12/06 07:05:24;;;;;;;16.90;13.03;;;;;;;2.70;100.00;101357.56;5093327;28;20028;-36
2023/12/06 07:07:49;;;;;;;13.93;12.30;;;;;;;2.69;100.00;101358.56;5093535;28;20028;-36
2023/12/06 07:10:15;;;;;;;12.83;11.43;;;;;;;2.59;100.00;101334.69;5093843;28;20024;-36
2023/12/06 07:12:40;;;;;;;14.03;12.40;;;;;;;2.73;100.00;101368.75;5093481;28;20028;-36
2023/12/06 07:15:13;;;;;;;14.90;13.07;;;;;;;2.72;100.00;101364.38;5093454;28;20117;-37
2023/12/06 07:17:38;;;;;;;15.52;12.57;;;;;;;2.73;100.00;101373.22;5094473;28;20024;-37
2023/12/06 07:20:04;;;;;;;13.20;11.40;;;;;;;2.76;100.00;101362.22;5097540;28;20384;-36
2023/12/06 07:22:29;;;;;;;14.68;13.18;;;;;;;2.72;100.00;101371.56;5097991;28;20377;-36
2023/12/06 07:24:55;;;;;;;16.83;13.00;;;;;;;2.74;100.00;101372.25;5097487;28;20028;-36
2023/12/06 07:27:20;;;;;;;14.57;13.07;;;;;;;2.72;100.00;101375.06;5097449;28;20023;-36
2023/12/06 07:29:45;;;;;;;14.27;12.47;;;;;;;2.62;100.00;101361.06;5097488;28;20027;-35
2023/12/06 07:32:11;;;;;;;14.37;12.83;;;;;;;2.69;100.00;101377.25;5097442;28;20047;-36
2023/12/06 07:34:36;;;;;;;15.67;12.83;;;;;;;2.70;100.00;101378.94;5097496;28;20476;-36
2023/12/06 07:37:02;;;;;;;16.27;13.10;;;;;;;2.66;100.00;101377.59;5097399;28;20020;-36
2023/12/06 07:39:27;;;;;;;14.87;12.23;;;;;;;2.64;100.00;101393.78;5096821;28;20145;-37
2023/12/06 07:41:52;;;;;;;14.23;12.67;;;;;;;2.56;100.00;101378.56;5096808;28;20253;-37
2023/12/06 07:44:20;;;;;;;14.50;13.00;;;;;;;2.64;100.00;101401.78;5097277;28;20103;-36
2023/12/06 07:46:46;;;;;;;16.42;12.77;;;;;;;2.58;100.00;101386.41;5097299;28;20024;-36
2023/12/06 07:49:12;;;;;;;16.07;12.63;;;;;;;2.67;100.00;101408.63;5097763;28;20031;-37
2023/12/06 07:51:38;;;;;;;13.75;12.27;;;;;;;2.56;100.00;101383.09;5096969;28;20031;-36
2023/12/06 07:54:03;;;;;;;16.40;12.60;;;;;;;2.67;100.00;101396.09;5096832;28;20032;-37
2023/12/06 07:56:30;;;;;;;13.60;11.17;;;;;;;2.68;100.00;101397.75;5096778;28;20297;-37
2023/12/06 07:58:57;;;;;;;15.55;12.30;;;;;;;2.63;100.00;101401.94;5097229;28;20024;-37
2023/12/06 08:01:24;;;;;;;15.63;13.43;;;;;;;2.58;100.00;101397.09;5096731;28;20024;-36
2023/12/06 08:03:49;;;;;;;14.15;12.65;;;;;;;2.61;100.00;101401.28;5096617;28;20055;-36
2023/12/06 08:06:15;;;;;;;15.52;12.85;;;;;;;2.66;100.00;101415.81;5096726;28;20032;-37
2023/12/06 08:08:41;;;;;;;;;;;;;;;2.71;100.00;101416.13;5097057;28;20028;-36
2023/12/06 08:11:06;;;;;;;14.75;12.18;;;;;;;2.58;100.00;101400.59;5096810;28;19912;-36
2023/12/06 08:13:31;;;;;;;15.40;12.00;;;;;;;2.68;100.00;101412.94;5097281;28;20024;-37
2023/12/06 08:15:57;;;;;;;16.00;13.50;;;;;;;2.67;100.00;101421.97;5096708;28;20027;-37
2023/12/06 08:18:22;;;;;;;15.07;12.40;;;;;;;2.62;100.00;101418.97;5096499;28;20111;-36
2023/12/06 08:20:48;;;;;;;14.90;13.20;;;;;;;2.61;100.00;101418.13;5096448;28;20032;-36
2023/12/06 08:23:13;;;;;;;16.87;12.93;;;;;;;2.71;100.00;101434.84;5096034;28;20073;-35
2023/12/06 08:25:40;;;;;;;15.83;12.97;;;;;;;2.69;100.00;101434.19;5096395;28;20107;-36
2023/12/06 08:28:05;;;;;;;15.13;12.50;;;;;;;2.58;100.00;101407.78;5095738;28;20028;-36
2023/12/06 08:30:31;;;;;;;16.67;12.73;;;;;;;2.69;100.00;101426.16;5096245;28;20028;-36
2023/12/06 08:32:57;;;;;;;13.70;12.13;;;;;;;2.78;100.00;101440.34;5096871;28;20024;-36
2023/12/06 08:35:22;;;;;;;15.13;12.93;;;;;;;2.73;100.00;101437.31;5096176;28;20081;-36
2023/12/06 08:37:48;;;;;;;15.10;12.63;;;;;;;2.80;100.00;101443.69;5096517;28;20032;-36
2023/12/06 08:40:13;;;;;;;13.47;12.07;;;;;;;2.82;100.00;101444.34;5095779;28;20494;-36
2023/12/06 08:42:39;;;;;;;15.53;11.93;;;;;;;2.63;100.00;101416.13;5096618;28;20031;-36
2023/12/06 08:45:07;;;;;;;15.75;12.80;;;;;;;2.78;100.00;101433.19;5095858;28;20085;-36
2023/12/06 08:47:33;;;;;;;14.27;11.45;;;;;;;2.84;100.00;101451.22;5095511;28;20476;-36
2023/12/06 08:49:58;;;;;;;14.00;12.50;;;;;;;2.72;100.00;101424.97;5095823;28;20031;-36
2023/12/06 08:52:24;;;;;;;13.35;11.85;;;;;;;2.87;100.00;101451.88;5096646;28;20081;-36
2023/12/06 08:54:49;;;;;;;14.53;11.93;;;;;;;2.89;100.00;101447.22;5096290;28;20028;-36
2023/12/06 08:57:14;;;;;;;15.80;11.53;;;;;;;2.84;100.00;101445.03;5096761;28;20051;-36
2023/12/06 08:59:40;;;;;;;12.80;11.07;;;;;;;2.89;100.00;101461.41;5095557;28;20030;-36
2023/12/06 09:02:06;;;;;;;14.80;11.80;;;;;;;2.94;100.00;101460.91;5095652;28;20031;-36
2023/12/06 09:04:31;;;;;;;11.52;9.60;;;;;;;2.97;100.00;101456.03;5095203;28;20316;-36
2023/12/06 09:06:57;;;;;;;12.63;11.00;;;;;;;3.02;100.00;101458.22;5095817;28;20028;-37
2023/12/06 09:09:22;;;;;;;15.23;11.43;;;;;;;3.06;100.00;101460.41;5095387;28;20020;-37
2023/12/06 09:11:47;;;;;;;13.53;10.70;;;;;;;3.11;100.00;101473.25;5095966;28;20081;-36
2023/12/06 09:14:13;;;;;;;13.63;11.77;;;;;;;3.16;100.00;101480.78;5095322;28;20031;-37
2023/12/06 09:16:40;;;;;;;14.00;10.68;;;;;;;3.18;100.00;101473.44;5095801;28;20026;-37
2023/12/06 09:19:05;;;;;;;12.15;10.45;;;;;;;3.22;100.00;101483.63;5095199;28;20032;-36
2023/12/06 09:21:43;;;;;;;13.15;10.93;;;;;;;3.29;100.00;101483.78;5095795;28;20081;-36
2023/12/06 09:24:11;;;;;;;12.63;10.60;;;;;;;3.31;100.00;101484.44;5095738;28;20024;-36
2023/12/06 09:26:38;;;;;;;12.48;10.63;;;;;;;3.31;100.00;101473.75;5095628;28;20039;-36
2023/12/06 09:29:08;;;;;;;13.32;10.32;;;;;;;3.28;100.00;101458.06;5095233;28;20036;-36
2023/12/06 09:31:34;;;;;;;14.38;9.88;;;;;;;3.49;100.00;101484.28;5095160;28;20031;-36
2023/12/06 09:34:00;;;;;;;9.82;8.80;;;;;;;3.54;100.00;101487.28;5095730;28;20031;-36
2023/12/06 09:36:27;;;;;;;10.95;9.32;;;;;;;3.62;100.00;101487.28;5095177;28;20076;-36
2023/12/06 09:38:53;;;;;;;14.45;9.73;;;;;;;3.65;100.00;101491.44;5094827;28;20032;-37
2023/12/06 09:41:20;;;;;;;12.15;9.25;;;;;;;3.74;100.00;101496.59;5094576;28;20085;-35
2023/12/06 09:43:45;;;;;;;10.02;8.63;;;;;;;3.84;100.00;101494.56;5094734;28;20032;-35
2023/12/06 09:46:14;;;;;;;12.10;8.60;;;;;;;3.94;100.00;101505.09;5095567;28;20043;-35
2023/12/06 09:48:40;;;;;;;10.10;8.55;;;;;;;3.97;100.00;101502.06;5094889;28;20346;-35
2023/12/06 09:51:05;;;;;;;10.77;7.65;;;;;;;3.94;100.00;101502.41;5095092;28;20038;-35
2023/12/06 09:53:31;;;;;;;8.88;7.38;;;;;;;3.91;100.00;101515.31;5095080;28;20376;-36
2023/12/06 09:55:57;;;;;;;9.40;7.27;;;;;;;3.87;100.00;101528.19;5094473;28;20380;-36
2023/12/06 09:58:22;;;;;;;10.55;7.47;;;;;;;3.70;100.00;101499.78;5095210;28;20028;-36
2023/12/06 10:00:47;;;;;;;9.60;6.87;;;;;;;3.82;100.00;101520.69;5095230;28;20028;-36
2023/12/06 10:03:14;;;;;;;9.17;7.67;;;;;;;3.89;100.00;101526.16;5094328;28;20270;-35
2023/12/06 10:05:40;;;;;;;8.57;6.45;;;;;;;3.94;100.00;101523.81;5094359;28;20032;-35
2023/12/06 10:08:05;;;;;;;8.90;6.70;;;;;;;4.00;100.00;101528.50;5094552;28;20050;-36
2023/12/06 10:10:31;;;;;;;9.90;6.72;;;;;;;4.10;100.00;101518.44;5094579;28;20074;-37
2023/12/06 10:12:56;;;;;;;10.10;7.13;;;;;;;4.16;100.00;101530.28;5093901;28;20116;-36
2023/12/06 10:15:22;;;;;;;9.93;6.70;;;;;;;4.20;100.00;101518.25;5094176;28;20468;-36
2023/12/06 10:17:48;;;;;;;8.60;6.43;;;;;;;4.25;100.00;101513.19;5093710;28;20055;-35
2023/12/06 10:20:14;;;;;;;11.30;7.65;;;;;;;4.30;100.00;101512.69;5093842;28;20078;-36
2023/12/06 10:22:41;;;;;;;10.00;7.68;;;;;;;4.38;100.00;101508.09;5094080;28;20038;-37
2023/12/06 10:25:07;;;;;;;;;;;;;;;4.53;100.00;101518.09;5094428;28;20027;-37
2023/12/06 10:27:34;;;;;;;8.77;6.32;;;;;;;4.33;100.00;101486.38;5094901;28;19908;-37
2023/12/06 10:30:00;;;;;;;9.43;6.32;;;;;;;4.52;100.00;101525.28;5093947;28;20102;-37
2023/12/06 10:32:28;;;;;;;8.38;5.97;;;;;;;4.53;100.00;101520.75;5094239;28;20028;-37
2023/12/06 10:34:55;;;;;;;8.07;6.30;;;;;;;4.53;100.00;101523.44;5093617;28;20139;-37
2023/12/06 10:37:21;;;;;;;8.73;6.18;;;;;;;4.27;100.00;101479.03;5094667;28;20050;-37
2023/12/06 10:39:51;;;;;;;;;;;;;;;4.55;100.00;101516.91;5093649;28;20030;-36
2023/12/06 10:42:23;;;;;;;8.35;6.03;;;;;;;4.48;100.00;101518.59;5093810;28;20002;-36
2023/12/06 10:44:49;;;;;;;8.60;6.22;;;;;;;4.49;100.00;101524.78;5093728;28;20049;-36
2023/12/06 10:47:16;;;;;;;9.77;7.30;;;;;;;4.48;100.00;101528.50;5094266;28;20038;-36
2023/12/06 10:49:43;;;;;;;9.13;6.55;;;;;;;4.48;100.00;101526.63;5094034;28;20052;-36
2023/12/06 10:52:09;;;;;;;8.68;6.25;;;;;;;4.45;100.00;101512.78;5093508;28;20484;-36
2023/12/06 10:54:35;;;;;;;;;;;;;;;4.62;100.00;101527.75;5094317;28;20047;-36
2023/12/06 10:57:03;;;;;;;9.32;6.30;;;;;;;4.61;100.00;101523.41;5094654;28;20352;-36
2023/12/06 10:59:30;;;;;;;8.98;6.22;;;;;;;4.57;100.00;101509.53;5092349;28;20028;-36
2023/12/06 11:01:57;;;;;;;8.07;6.07;;;;;;;4.65;100.00;101516.69;5093823;28;20384;-36
2023/12/06 11:04:30;;;;;;;8.77;6.38;;;;;;;4.69;100.00;101512.66;5093257;28;20480;-36
2023/12/06 11:07:09;;;;;;;8.05;6.20;;;;;;;4.67;100.00;101511.16;5093522;28;20058;-37